sensor_id;sensor_type;location;lat;lon;timestamp;temperature;humidity
4548;DHT22;2286;51.570;7.090;2023-08-21T00:01:02;19.70;99.90
4548;DHT22;2286;51.570;7.090;2023-08-21T00:03:29;19.70;1.00
4548;DHT22;2286;51.570;7.090;2023-08-21T00:05:56;19.60;1.00
4548;DHT22;2286;51.570;7.090;2023-08-21T00:08:23;19.60;1.00
4548;DHT22;2286;51.570;7.090;2023-08-21T00:10:50;19.60;1.00
4548;DHT22;2286;51.570;7.090;2023-08-21T00:13:17;19.60;1.00
4548;DHT22;2286;51.570;7.090;2023-08-21T00:15:45;19.70;1.00
4548;DHT22;2286;51.570;7.090;2023-08-21T00:18:12;19.70;1.00
4548;DHT22;2286;51.570;7.090;2023-08-21T00:20:40;19.60;99.90
4548;DHT22;2286;51.570;7.090;2023-08-21T00:23:08;19.70;99.90
4548;DHT22;2286;51.570;7.090;2023-08-21T00:25:35;19.70;99.90
4548;DHT22;2286;51.570;7.090;2023-08-21T00:28:02;19.70;99.90
4548;DHT22;2286;51.570;7.090;2023-08-21T00:30:29;19.70;99.90
4548;DHT22;2286;51.570;7.090;2023-08-21T00:32:57;19.70;99.90
4548;DHT22;2286;51.570;7.090;2023-08-21T00:35:24;19.70;99.90
4548;DHT22;2286;51.570;7.090;2023-08-21T00:37:51;19.70;99.90
4548;DHT22;2286;51.570;7.090;2023-08-21T00:40:18;19.70;99.90
4548;DHT22;2286;51.570;7.090;2023-08-21T00:42:45;19.70;99.90
4548;DHT22;2286;51.570;7.090;2023-08-21T00:45:11;19.60;99.90
4548;DHT22;2286;51.570;7.090;2023-08-21T00:47:39;19.50;99.90
4548;DHT22;2286;51.570;7.090;2023-08-21T00:50:09;19.50;99.90
4548;DHT22;2286;51.570;7.090;2023-08-21T00:52:39;19.50;99.90
4548;DHT22;2286;51.570;7.090;2023-08-21T00:55:07;19.50;99.90
4548;DHT22;2286;51.570;7.090;2023-08-21T00:57:35;19.50;99.90
4548;DHT22;2286;51.570;7.090;2023-08-21T01:00:03;19.60;99.90
4548;DHT22;2286;51.570;7.090;2023-08-21T01:02:31;19.60;99.90
4548;DHT22;2286;51.570;7.090;2023-08-21T01:08:28;19.60;99.90
4548;DHT22;2286;51.570;7.090;2023-08-21T01:11:02;19.60;38.20
4548;DHT22;2286;51.570;7.090;2023-08-21T01:13:38;19.60;96.30
4548;DHT22;2286;51.570;7.090;2023-08-21T01:16:08;19.60;66.70
4548;DHT22;2286;51.570;7.090;2023-08-21T01:18:36;19.60;99.90
4548;DHT22;2286;51.570;7.090;2023-08-21T01:21:04;19.60;99.90
4548;DHT22;2286;51.570;7.090;2023-08-21T01:23:33;19.50;99.90
4548;DHT22;2286;51.570;7.090;2023-08-21T01:26:00;19.50;99.90
4548;DHT22;2286;51.570;7.090;2023-08-21T01:28:27;19.40;99.90
4548;DHT22;2286;51.570;7.090;2023-08-21T01:31:01;19.40;99.90
4548;DHT22;2286;51.570;7.090;2023-08-21T01:33:30;19.40;99.90
4548;DHT22;2286;51.570;7.090;2023-08-21T01:36:02;19.40;99.90
4548;DHT22;2286;51.570;7.090;2023-08-21T01:38:32;19.40;92.10
4548;DHT22;2286;51.570;7.090;2023-08-21T01:41:00;19.30;99.90
4548;DHT22;2286;51.570;7.090;2023-08-21T01:43:27;19.20;99.90
4548;DHT22;2286;51.570;7.090;2023-08-21T01:45:54;19.10;99.90
4548;DHT22;2286;51.570;7.090;2023-08-21T01:48:21;19.00;1.00
4548;DHT22;2286;51.570;7.090;2023-08-21T01:50:49;18.90;1.00
4548;DHT22;2286;51.570;7.090;2023-08-21T01:53:15;18.90;1.00
4548;DHT22;2286;51.570;7.090;2023-08-21T01:55:43;18.80;1.00
4548;DHT22;2286;51.570;7.090;2023-08-21T01:58:10;18.80;1.00
4548;DHT22;2286;51.570;7.090;2023-08-21T02:00:37;18.80;1.00
4548;DHT22;2286;51.570;7.090;2023-08-21T02:03:04;18.70;1.00
4548;DHT22;2286;51.570;7.090;2023-08-21T02:05:37;18.70;1.00
4548;DHT22;2286;51.570;7.090;2023-08-21T02:08:04;18.70;1.00
4548;DHT22;2286;51.570;7.090;2023-08-21T02:10:31;18.70;1.00
4548;DHT22;2286;51.570;7.090;2023-08-21T02:12:59;18.70;1.00
4548;DHT22;2286;51.570;7.090;2023-08-21T02:15:26;18.60;29.40
4548;DHT22;2286;51.570;7.090;2023-08-21T02:17:53;18.50;1.00
4548;DHT22;2286;51.570;7.090;2023-08-21T02:20:20;18.40;1.00
4548;DHT22;2286;51.570;7.090;2023-08-21T02:22:46;18.40;93.50
4548;DHT22;2286;51.570;7.090;2023-08-21T02:25:13;18.30;99.90
4548;DHT22;2286;51.570;7.090;2023-08-21T02:27:40;18.30;99.90
4548;DHT22;2286;51.570;7.090;2023-08-21T02:30:09;18.30;99.90
4548;DHT22;2286;51.570;7.090;2023-08-21T02:32:36;18.30;14.00
4548;DHT22;2286;51.570;7.090;2023-08-21T02:35:04;18.30;5.70
4548;DHT22;2286;51.570;7.090;2023-08-21T02:37:31;18.30;1.00
4548;DHT22;2286;51.570;7.090;2023-08-21T02:39:58;18.30;1.00
4548;DHT22;2286;51.570;7.090;2023-08-21T02:42:26;18.30;1.00
4548;DHT22;2286;51.570;7.090;2023-08-21T02:44:52;18.30;1.00
4548;DHT22;2286;51.570;7.090;2023-08-21T02:47:20;18.30;1.00
4548;DHT22;2286;51.570;7.090;2023-08-21T02:49:47;18.20;1.00
4548;DHT22;2286;51.570;7.090;2023-08-21T02:52:14;18.20;1.00
4548;DHT22;2286;51.570;7.090;2023-08-21T02:54:41;18.30;99.90
4548;DHT22;2286;51.570;7.090;2023-08-21T02:57:08;18.20;1.00
4548;DHT22;2286;51.570;7.090;2023-08-21T02:59:34;18.30;99.90
4548;DHT22;2286;51.570;7.090;2023-08-21T03:02:01;18.30;99.90
4548;DHT22;2286;51.570;7.090;2023-08-21T03:04:30;18.20;99.90
4548;DHT22;2286;51.570;7.090;2023-08-21T03:06:56;18.10;99.90
4548;DHT22;2286;51.570;7.090;2023-08-21T03:09:23;18.10;1.00
4548;DHT22;2286;51.570;7.090;2023-08-21T03:11:50;18.00;1.00
4548;DHT22;2286;51.570;7.090;2023-08-21T03:14:17;18.00;1.00
4548;DHT22;2286;51.570;7.090;2023-08-21T03:16:44;18.00;1.00
4548;DHT22;2286;51.570;7.090;2023-08-21T03:19:11;18.00;1.00
4548;DHT22;2286;51.570;7.090;2023-08-21T03:21:39;18.00;1.00
4548;DHT22;2286;51.570;7.090;2023-08-21T03:24:06;18.00;1.00
4548;DHT22;2286;51.570;7.090;2023-08-21T03:26:33;17.90;1.00
4548;DHT22;2286;51.570;7.090;2023-08-21T03:29:00;17.90;11.00
4548;DHT22;2286;51.570;7.090;2023-08-21T03:31:28;17.70;99.90
4548;DHT22;2286;51.570;7.090;2023-08-21T03:33:56;17.70;99.90
4548;DHT22;2286;51.570;7.090;2023-08-21T03:36:23;17.60;99.90
4548;DHT22;2286;51.570;7.090;2023-08-21T03:38:57;17.60;1.00
4548;DHT22;2286;51.570;7.090;2023-08-21T03:41:24;17.60;1.00
4548;DHT22;2286;51.570;7.090;2023-08-21T03:43:51;17.50;99.90
4548;DHT22;2286;51.570;7.090;2023-08-21T03:46:18;17.50;99.90
4548;DHT22;2286;51.570;7.090;2023-08-21T03:48:45;17.40;1.00
4548;DHT22;2286;51.570;7.090;2023-08-21T03:51:12;17.40;1.00
4548;DHT22;2286;51.570;7.090;2023-08-21T03:53:39;17.40;23.00
4548;DHT22;2286;51.570;7.090;2023-08-21T03:56:07;17.40;99.90
4548;DHT22;2286;51.570;7.090;2023-08-21T03:58:35;17.40;99.90
4548;DHT22;2286;51.570;7.090;2023-08-21T04:01:02;17.40;99.90
4548;DHT22;2286;51.570;7.090;2023-08-21T04:03:29;17.40;99.90
4548;DHT22;2286;51.570;7.090;2023-08-21T04:05:56;17.30;1.00
4548;DHT22;2286;51.570;7.090;2023-08-21T04:08:24;17.30;1.00
4548;DHT22;2286;51.570;7.090;2023-08-21T04:10:51;17.30;99.90
4548;DHT22;2286;51.570;7.090;2023-08-21T04:13:20;17.30;99.90
4548;DHT22;2286;51.570;7.090;2023-08-21T04:15:48;17.30;99.90
4548;DHT22;2286;51.570;7.090;2023-08-21T04:18:16;17.10;1.00
4548;DHT22;2286;51.570;7.090;2023-08-21T04:20:43;17.10;1.00
4548;DHT22;2286;51.570;7.090;2023-08-21T04:23:10;17.10;99.90
4548;DHT22;2286;51.570;7.090;2023-08-21T04:25:37;17.00;1.00
4548;DHT22;2286;51.570;7.090;2023-08-21T04:28:04;17.00;1.00
4548;DHT22;2286;51.570;7.090;2023-08-21T04:30:32;17.00;1.00
4548;DHT22;2286;51.570;7.090;2023-08-21T04:33:00;17.00;1.00
4548;DHT22;2286;51.570;7.090;2023-08-21T04:35:26;17.00;1.00
4548;DHT22;2286;51.570;7.090;2023-08-21T04:37:55;17.00;1.00
4548;DHT22;2286;51.570;7.090;2023-08-21T04:40:24;17.00;1.00
4548;DHT22;2286;51.570;7.090;2023-08-21T04:42:51;17.00;99.90
4548;DHT22;2286;51.570;7.090;2023-08-21T04:45:18;17.00;1.00
4548;DHT22;2286;51.570;7.090;2023-08-21T04:47:46;17.00;1.00
4548;DHT22;2286;51.570;7.090;2023-08-21T04:50:13;17.10;1.00
4548;DHT22;2286;51.570;7.090;2023-08-21T04:52:41;17.10;1.00
4548;DHT22;2286;51.570;7.090;2023-08-21T04:55:08;17.20;1.00
4548;DHT22;2286;51.570;7.090;2023-08-21T04:57:35;17.30;1.00
4548;DHT22;2286;51.570;7.090;2023-08-21T05:00:03;17.40;1.00
4548;DHT22;2286;51.570;7.090;2023-08-21T05:02:30;17.50;99.90
4548;DHT22;2286;51.570;7.090;2023-08-21T05:04:58;17.60;99.90
4548;DHT22;2286;51.570;7.090;2023-08-21T05:07:25;17.70;1.00
4548;DHT22;2286;51.570;7.090;2023-08-21T05:09:52;17.70;1.00
4548;DHT22;2286;51.570;7.090;2023-08-21T05:12:19;17.60;80.80
4548;DHT22;2286;51.570;7.090;2023-08-21T05:14:46;17.60;99.90
4548;DHT22;2286;51.570;7.090;2023-08-21T05:17:13;17.60;99.90
4548;DHT22;2286;51.570;7.090;2023-08-21T05:19:40;17.60;1.00
4548;DHT22;2286;51.570;7.090;2023-08-21T05:22:08;17.50;1.00
4548;DHT22;2286;51.570;7.090;2023-08-21T05:24:35;17.50;1.00
4548;DHT22;2286;51.570;7.090;2023-08-21T05:27:02;17.50;1.00
4548;DHT22;2286;51.570;7.090;2023-08-21T05:29:30;17.50;25.50
4548;DHT22;2286;51.570;7.090;2023-08-21T05:31:56;17.40;1.00
4548;DHT22;2286;51.570;7.090;2023-08-21T05:34:23;17.40;99.90
4548;DHT22;2286;51.570;7.090;2023-08-21T05:36:51;17.50;99.90
4548;DHT22;2286;51.570;7.090;2023-08-21T05:39:21;17.60;60.90
4548;DHT22;2286;51.570;7.090;2023-08-21T05:41:48;17.70;1.00
4548;DHT22;2286;51.570;7.090;2023-08-21T05:44:15;17.80;1.00
4548;DHT22;2286;51.570;7.090;2023-08-21T05:46:42;18.00;99.90
4548;DHT22;2286;51.570;7.090;2023-08-21T05:49:08;18.20;99.90
4548;DHT22;2286;51.570;7.090;2023-08-21T05:51:35;18.30;99.90
4548;DHT22;2286;51.570;7.090;2023-08-21T05:54:02;18.60;99.90
4548;DHT22;2286;51.570;7.090;2023-08-21T05:56:31;18.80;99.90
4548;DHT22;2286;51.570;7.090;2023-08-21T05:58:58;19.10;1.00
4548;DHT22;2286;51.570;7.090;2023-08-21T06:01:24;19.30;99.90
4548;DHT22;2286;51.570;7.090;2023-08-21T06:03:51;19.40;99.30
4548;DHT22;2286;51.570;7.090;2023-08-21T06:06:18;19.40;1.00
4548;DHT22;2286;51.570;7.090;2023-08-21T06:08:45;19.40;1.00
4548;DHT22;2286;51.570;7.090;2023-08-21T06:11:12;19.40;1.00
4548;DHT22;2286;51.570;7.090;2023-08-21T06:13:41;19.50;1.00
4548;DHT22;2286;51.570;7.090;2023-08-21T06:16:08;19.60;1.00
4548;DHT22;2286;51.570;7.090;2023-08-21T06:18:35;19.70;1.00
4548;DHT22;2286;51.570;7.090;2023-08-21T06:21:02;19.80;1.00
4548;DHT22;2286;51.570;7.090;2023-08-21T06:23:29;19.90;99.90
4548;DHT22;2286;51.570;7.090;2023-08-21T06:25:55;20.00;99.90
4548;DHT22;2286;51.570;7.090;2023-08-21T06:28:22;20.00;99.90
4548;DHT22;2286;51.570;7.090;2023-08-21T06:30:55;20.10;99.90
4548;DHT22;2286;51.570;7.090;2023-08-21T06:33:22;20.10;27.30
4548;DHT22;2286;51.570;7.090;2023-08-21T06:35:49;20.10;99.90
4548;DHT22;2286;51.570;7.090;2023-08-21T06:38:16;20.20;1.00
4548;DHT22;2286;51.570;7.090;2023-08-21T06:40:44;20.20;1.00
4548;DHT22;2286;51.570;7.090;2023-08-21T06:43:11;20.30;1.00
4548;DHT22;2286;51.570;7.090;2023-08-21T06:45:38;20.50;1.00
4548;DHT22;2286;51.570;7.090;2023-08-21T06:48:07;20.70;99.90
4548;DHT22;2286;51.570;7.090;2023-08-21T06:50:36;20.90;99.90
4548;DHT22;2286;51.570;7.090;2023-08-21T06:53:03;21.10;1.00
4548;DHT22;2286;51.570;7.090;2023-08-21T06:55:30;21.30;1.00
4548;DHT22;2286;51.570;7.090;2023-08-21T06:57:57;21.40;1.00
4548;DHT22;2286;51.570;7.090;2023-08-21T07:00:24;21.60;1.00
4548;DHT22;2286;51.570;7.090;2023-08-21T07:02:51;21.70;99.90
4548;DHT22;2286;51.570;7.090;2023-08-21T07:05:20;21.90;99.90
4548;DHT22;2286;51.570;7.090;2023-08-21T07:07:48;22.00;99.90
4548;DHT22;2286;51.570;7.090;2023-08-21T07:10:15;22.20;99.90
4548;DHT22;2286;51.570;7.090;2023-08-21T07:12:41;22.40;60.00
4548;DHT22;2286;51.570;7.090;2023-08-21T07:15:09;22.90;1.00
4548;DHT22;2286;51.570;7.090;2023-08-21T07:17:36;23.00;1.00
4548;DHT22;2286;51.570;7.090;2023-08-21T07:20:04;23.00;99.90
4548;DHT22;2286;51.570;7.090;2023-08-21T07:22:32;23.20;99.90
4548;DHT22;2286;51.570;7.090;2023-08-21T07:24:59;23.10;99.90
4548;DHT22;2286;51.570;7.090;2023-08-21T07:27:29;23.10;99.90
4548;DHT22;2286;51.570;7.090;2023-08-21T07:29:56;22.90;99.90
4548;DHT22;2286;51.570;7.090;2023-08-21T07:32:23;22.90;99.90
4548;DHT22;2286;51.570;7.090;2023-08-21T07:34:52;23.00;99.90
4548;DHT22;2286;51.570;7.090;2023-08-21T07:37:19;23.10;99.90
4548;DHT22;2286;51.570;7.090;2023-08-21T07:39:47;23.10;99.90
4548;DHT22;2286;51.570;7.090;2023-08-21T07:42:14;23.20;99.90
4548;DHT22;2286;51.570;7.090;2023-08-21T07:44:41;23.30;99.90
4548;DHT22;2286;51.570;7.090;2023-08-21T07:47:08;23.40;99.90
4548;DHT22;2286;51.570;7.090;2023-08-21T07:49:35;23.30;99.90
4548;DHT22;2286;51.570;7.090;2023-08-21T07:52:03;23.10;99.90
4548;DHT22;2286;51.570;7.090;2023-08-21T07:54:30;22.90;99.90
4548;DHT22;2286;51.570;7.090;2023-08-21T07:56:58;22.80;1.00
4548;DHT22;2286;51.570;7.090;2023-08-21T07:59:25;22.90;1.00
4548;DHT22;2286;51.570;7.090;2023-08-21T08:01:52;23.00;1.00
4548;DHT22;2286;51.570;7.090;2023-08-21T08:04:19;23.00;99.90
4548;DHT22;2286;51.570;7.090;2023-08-21T08:06:46;23.20;99.90
4548;DHT22;2286;51.570;7.090;2023-08-21T08:09:14;23.40;99.90
4548;DHT22;2286;51.570;7.090;2023-08-21T08:11:40;23.70;99.90
4548;DHT22;2286;51.570;7.090;2023-08-21T08:14:09;23.90;99.90
4548;DHT22;2286;51.570;7.090;2023-08-21T08:16:35;24.10;99.90
4548;DHT22;2286;51.570;7.090;2023-08-21T08:19:02;24.20;99.90
4548;DHT22;2286;51.570;7.090;2023-08-21T08:21:29;24.50;99.90
4548;DHT22;2286;51.570;7.090;2023-08-21T08:23:56;24.60;99.90
4548;DHT22;2286;51.570;7.090;2023-08-21T08:26:23;24.90;99.90
4548;DHT22;2286;51.570;7.090;2023-08-21T08:28:50;25.10;99.90
4548;DHT22;2286;51.570;7.090;2023-08-21T08:31:18;25.20;99.90
4548;DHT22;2286;51.570;7.090;2023-08-21T08:33:45;25.40;99.90
4548;DHT22;2286;51.570;7.090;2023-08-21T08:36:13;25.30;99.90
4548;DHT22;2286;51.570;7.090;2023-08-21T08:38:40;25.20;99.90
4548;DHT22;2286;51.570;7.090;2023-08-21T08:41:16;25.10;99.90
4548;DHT22;2286;51.570;7.090;2023-08-21T08:43:50;25.10;99.90
4548;DHT22;2286;51.570;7.090;2023-08-21T08:46:19;25.20;99.90
4548;DHT22;2286;51.570;7.090;2023-08-21T08:48:46;25.30;99.90
4548;DHT22;2286;51.570;7.090;2023-08-21T08:51:13;25.20;99.90
4548;DHT22;2286;51.570;7.090;2023-08-21T08:53:42;25.20;99.90
4548;DHT22;2286;51.570;7.090;2023-08-21T08:56:09;25.20;99.90
4548;DHT22;2286;51.570;7.090;2023-08-21T08:58:36;25.30;99.90
4548;DHT22;2286;51.570;7.090;2023-08-21T09:01:03;25.40;99.90
4548;DHT22;2286;51.570;7.090;2023-08-21T09:03:31;25.50;99.90
4548;DHT22;2286;51.570;7.090;2023-08-21T09:05:58;25.60;99.90
4548;DHT22;2286;51.570;7.090;2023-08-21T09:08:25;25.80;99.90
4548;DHT22;2286;51.570;7.090;2023-08-21T09:10:54;25.90;99.90
4548;DHT22;2286;51.570;7.090;2023-08-21T09:13:21;26.00;99.90
4548;DHT22;2286;51.570;7.090;2023-08-21T09:15:52;26.00;99.90
4548;DHT22;2286;51.570;7.090;2023-08-21T09:18:20;26.10;99.90
4548;DHT22;2286;51.570;7.090;2023-08-21T09:20:48;26.10;99.90
4548;DHT22;2286;51.570;7.090;2023-08-21T09:23:16;26.30;99.90
4548;DHT22;2286;51.570;7.090;2023-08-21T09:25:44;26.40;99.90
4548;DHT22;2286;51.570;7.090;2023-08-21T09:28:13;26.50;99.90
4548;DHT22;2286;51.570;7.090;2023-08-21T09:30:47;26.60;99.90
4548;DHT22;2286;51.570;7.090;2023-08-21T09:33:17;26.80;99.90
4548;DHT22;2286;51.570;7.090;2023-08-21T09:35:45;26.90;99.90
4548;DHT22;2286;51.570;7.090;2023-08-21T09:38:13;27.10;99.90
4548;DHT22;2286;51.570;7.090;2023-08-21T09:40:41;27.30;99.90
4548;DHT22;2286;51.570;7.090;2023-08-21T09:43:09;27.50;99.90
4548;DHT22;2286;51.570;7.090;2023-08-21T09:45:37;27.50;99.90
4548;DHT22;2286;51.570;7.090;2023-08-21T09:48:05;27.60;99.90
4548;DHT22;2286;51.570;7.090;2023-08-21T09:50:32;27.60;99.90
4548;DHT22;2286;51.570;7.090;2023-08-21T09:53:02;28.00;99.90
4548;DHT22;2286;51.570;7.090;2023-08-21T09:55:32;28.40;99.90
4548;DHT22;2286;51.570;7.090;2023-08-21T09:57:59;28.90;99.90
4548;DHT22;2286;51.570;7.090;2023-08-21T10:00:29;29.30;99.90
4548;DHT22;2286;51.570;7.090;2023-08-21T10:03:00;29.60;99.90
4548;DHT22;2286;51.570;7.090;2023-08-21T10:05:28;29.90;99.90
4548;DHT22;2286;51.570;7.090;2023-08-21T10:07:56;30.00;99.90
4548;DHT22;2286;51.570;7.090;2023-08-21T10:10:23;29.80;99.90
4548;DHT22;2286;51.570;7.090;2023-08-21T10:12:52;29.70;99.90
4548;DHT22;2286;51.570;7.090;2023-08-21T10:15:19;29.80;99.90
4548;DHT22;2286;51.570;7.090;2023-08-21T10:17:46;30.40;99.90
4548;DHT22;2286;51.570;7.090;2023-08-21T10:20:13;30.90;99.90
4548;DHT22;2286;51.570;7.090;2023-08-21T10:22:48;31.40;99.90
4548;DHT22;2286;51.570;7.090;2023-08-21T10:25:17;32.20;99.90
4548;DHT22;2286;51.570;7.090;2023-08-21T10:27:46;33.00;99.90
4548;DHT22;2286;51.570;7.090;2023-08-21T10:30:19;33.20;99.90
4548;DHT22;2286;51.570;7.090;2023-08-21T10:32:47;33.40;99.90
4548;DHT22;2286;51.570;7.090;2023-08-21T10:35:15;33.60;99.90
4548;DHT22;2286;51.570;7.090;2023-08-21T10:38:13;33.90;99.90
4548;DHT22;2286;51.570;7.090;2023-08-21T10:41:03;35.00;99.90
4548;DHT22;2286;51.570;7.090;2023-08-21T10:43:38;35.70;99.90
4548;DHT22;2286;51.570;7.090;2023-08-21T10:46:06;36.20;99.90
4548;DHT22;2286;51.570;7.090;2023-08-21T10:48:34;36.70;99.90
4548;DHT22;2286;51.570;7.090;2023-08-21T10:51:02;36.70;99.90
4548;DHT22;2286;51.570;7.090;2023-08-21T10:53:29;36.80;99.90
4548;DHT22;2286;51.570;7.090;2023-08-21T10:55:57;36.70;99.90
4548;DHT22;2286;51.570;7.090;2023-08-21T10:58:24;36.50;99.90
4548;DHT22;2286;51.570;7.090;2023-08-21T11:00:57;37.00;99.90
4548;DHT22;2286;51.570;7.090;2023-08-21T11:03:25;37.50;99.90
4548;DHT22;2286;51.570;7.090;2023-08-21T11:06:02;37.40;99.90
4548;DHT22;2286;51.570;7.090;2023-08-21T11:08:31;37.60;99.90
4548;DHT22;2286;51.570;7.090;2023-08-21T11:10:58;37.60;99.90
4548;DHT22;2286;51.570;7.090;2023-08-21T11:13:25;37.80;99.90
4548;DHT22;2286;51.570;7.090;2023-08-21T11:15:58;37.40;99.90
4548;DHT22;2286;51.570;7.090;2023-08-21T11:18:37;38.00;99.90
4548;DHT22;2286;51.570;7.090;2023-08-21T11:21:08;37.70;99.90
4548;DHT22;2286;51.570;7.090;2023-08-21T11:23:36;37.90;99.90
4548;DHT22;2286;51.570;7.090;2023-08-21T11:26:04;38.30;99.90
4548;DHT22;2286;51.570;7.090;2023-08-21T11:28:31;37.60;99.90
4548;DHT22;2286;51.570;7.090;2023-08-21T11:30:59;37.50;99.90
4548;DHT22;2286;51.570;7.090;2023-08-21T11:33:26;37.60;99.90
4548;DHT22;2286;51.570;7.090;2023-08-21T11:35:56;37.60;99.90
4548;DHT22;2286;51.570;7.090;2023-08-21T11:38:25;37.30;99.90
4548;DHT22;2286;51.570;7.090;2023-08-21T11:40:56;37.80;99.90
4548;DHT22;2286;51.570;7.090;2023-08-21T11:43:34;38.10;99.90
4548;DHT22;2286;51.570;7.090;2023-08-21T11:46:01;37.60;99.90
4548;DHT22;2286;51.570;7.090;2023-08-21T11:48:28;37.50;99.90
4548;DHT22;2286;51.570;7.090;2023-08-21T11:50:57;37.70;99.90
4548;DHT22;2286;51.570;7.090;2023-08-21T11:53:31;37.60;99.90
4548;DHT22;2286;51.570;7.090;2023-08-21T11:55:58;37.70;99.90
4548;DHT22;2286;51.570;7.090;2023-08-21T11:58:26;37.90;99.90
4548;DHT22;2286;51.570;7.090;2023-08-21T12:00:53;37.70;99.90
4548;DHT22;2286;51.570;7.090;2023-08-21T12:03:20;37.20;99.90
4548;DHT22;2286;51.570;7.090;2023-08-21T12:05:47;36.60;99.90
4548;DHT22;2286;51.570;7.090;2023-08-21T12:08:16;36.90;99.90
4548;DHT22;2286;51.570;7.090;2023-08-21T12:10:43;37.00;99.90
4548;DHT22;2286;51.570;7.090;2023-08-21T12:13:12;37.40;99.90
4548;DHT22;2286;51.570;7.090;2023-08-21T12:15:39;38.50;99.90
4548;DHT22;2286;51.570;7.090;2023-08-21T12:18:06;38.70;99.90
4548;DHT22;2286;51.570;7.090;2023-08-21T12:20:33;39.30;99.90
4548;DHT22;2286;51.570;7.090;2023-08-21T12:22:59;40.30;99.90
4548;DHT22;2286;51.570;7.090;2023-08-21T12:25:28;41.20;99.90
4548;DHT22;2286;51.570;7.090;2023-08-21T12:27:55;40.90;99.90
4548;DHT22;2286;51.570;7.090;2023-08-21T12:30:22;41.60;99.90
4548;DHT22;2286;51.570;7.090;2023-08-21T12:32:49;41.80;99.90
4548;DHT22;2286;51.570;7.090;2023-08-21T12:35:16;41.50;99.90
4548;DHT22;2286;51.570;7.090;2023-08-21T12:37:43;41.90;99.90
4548;DHT22;2286;51.570;7.090;2023-08-21T12:40:10;42.40;99.90
4548;DHT22;2286;51.570;7.090;2023-08-21T12:42:38;42.30;99.90
4548;DHT22;2286;51.570;7.090;2023-08-21T12:45:06;41.20;99.90
4548;DHT22;2286;51.570;7.090;2023-08-21T12:47:38;41.50;99.90
4548;DHT22;2286;51.570;7.090;2023-08-21T12:50:06;42.20;99.90
4548;DHT22;2286;51.570;7.090;2023-08-21T12:52:33;43.00;99.90
4548;DHT22;2286;51.570;7.090;2023-08-21T12:55:00;43.50;99.90
4548;DHT22;2286;51.570;7.090;2023-08-21T12:57:30;43.60;99.90
4548;DHT22;2286;51.570;7.090;2023-08-21T12:59:58;43.60;99.90
4548;DHT22;2286;51.570;7.090;2023-08-21T13:02:25;43.90;99.90
4548;DHT22;2286;51.570;7.090;2023-08-21T13:04:53;44.30;99.90
4548;DHT22;2286;51.570;7.090;2023-08-21T13:07:20;44.30;99.90
4548;DHT22;2286;51.570;7.090;2023-08-21T13:09:47;45.00;99.90
4548;DHT22;2286;51.570;7.090;2023-08-21T13:12:13;45.10;99.90
4548;DHT22;2286;51.570;7.090;2023-08-21T13:14:40;45.20;99.90
4548;DHT22;2286;51.570;7.090;2023-08-21T13:17:09;45.30;99.90
4548;DHT22;2286;51.570;7.090;2023-08-21T13:19:36;44.00;99.90
4548;DHT22;2286;51.570;7.090;2023-08-21T13:22:03;42.30;99.90
4548;DHT22;2286;51.570;7.090;2023-08-21T13:24:30;40.60;99.90
4548;DHT22;2286;51.570;7.090;2023-08-21T13:26:57;39.10;99.90
4548;DHT22;2286;51.570;7.090;2023-08-21T13:29:24;38.20;99.90
4548;DHT22;2286;51.570;7.090;2023-08-21T13:31:52;37.50;99.90
4548;DHT22;2286;51.570;7.090;2023-08-21T13:34:20;37.30;99.90
4548;DHT22;2286;51.570;7.090;2023-08-21T13:36:47;37.30;99.90
4548;DHT22;2286;51.570;7.090;2023-08-21T13:39:14;37.50;99.90
4548;DHT22;2286;51.570;7.090;2023-08-21T13:41:41;39.00;99.90
4548;DHT22;2286;51.570;7.090;2023-08-21T13:44:08;40.50;99.90
4548;DHT22;2286;51.570;7.090;2023-08-21T13:46:35;41.70;99.90
4548;DHT22;2286;51.570;7.090;2023-08-21T13:49:02;43.00;99.90
4548;DHT22;2286;51.570;7.090;2023-08-21T13:51:30;43.70;99.90
4548;DHT22;2286;51.570;7.090;2023-08-21T13:53:57;43.70;99.90
4548;DHT22;2286;51.570;7.090;2023-08-21T13:56:24;43.70;99.90
4548;DHT22;2286;51.570;7.090;2023-08-21T13:58:51;44.10;99.90
4548;DHT22;2286;51.570;7.090;2023-08-21T14:01:18;44.30;99.90
4548;DHT22;2286;51.570;7.090;2023-08-21T14:03:45;44.80;99.90
4548;DHT22;2286;51.570;7.090;2023-08-21T14:06:12;44.70;99.90
4548;DHT22;2286;51.570;7.090;2023-08-21T14:08:40;44.20;99.90
4548;DHT22;2286;51.570;7.090;2023-08-21T14:11:08;44.50;99.90
4548;DHT22;2286;51.570;7.090;2023-08-21T14:13:35;44.90;99.90
4548;DHT22;2286;51.570;7.090;2023-08-21T14:16:02;45.10;99.90
4548;DHT22;2286;51.570;7.090;2023-08-21T14:18:29;45.40;99.90
4548;DHT22;2286;51.570;7.090;2023-08-21T14:20:56;45.40;99.90
4548;DHT22;2286;51.570;7.090;2023-08-21T14:23:23;44.90;99.90
4548;DHT22;2286;51.570;7.090;2023-08-21T14:25:51;44.00;99.90
4548;DHT22;2286;51.570;7.090;2023-08-21T14:28:18;43.60;99.90
4548;DHT22;2286;51.570;7.090;2023-08-21T14:30:45;42.10;99.90
4548;DHT22;2286;51.570;7.090;2023-08-21T14:33:12;40.50;99.90
4548;DHT22;2286;51.570;7.090;2023-08-21T14:35:39;39.30;99.90
4548;DHT22;2286;51.570;7.090;2023-08-21T14:38:06;39.10;99.90
4548;DHT22;2286;51.570;7.090;2023-08-21T14:40:33;39.70;99.90
4548;DHT22;2286;51.570;7.090;2023-08-21T14:43:01;41.10;99.90
4548;DHT22;2286;51.570;7.090;2023-08-21T14:45:28;41.80;99.90
4548;DHT22;2286;51.570;7.090;2023-08-21T14:47:55;41.90;99.90
4548;DHT22;2286;51.570;7.090;2023-08-21T14:50:22;42.00;99.90
4548;DHT22;2286;51.570;7.090;2023-08-21T14:52:50;41.20;99.90
4548;DHT22;2286;51.570;7.090;2023-08-21T14:55:17;40.70;99.90
4548;DHT22;2286;51.570;7.090;2023-08-21T14:57:43;40.90;99.90
4548;DHT22;2286;51.570;7.090;2023-08-21T15:00:13;40.80;99.90
4548;DHT22;2286;51.570;7.090;2023-08-21T15:02:42;40.80;99.90
4548;DHT22;2286;51.570;7.090;2023-08-21T15:05:09;40.20;99.90
4548;DHT22;2286;51.570;7.090;2023-08-21T15:07:37;39.80;99.90
4548;DHT22;2286;51.570;7.090;2023-08-21T15:10:05;39.00;99.90
4548;DHT22;2286;51.570;7.090;2023-08-21T15:12:32;39.00;99.90
4548;DHT22;2286;51.570;7.090;2023-08-21T15:14:59;40.00;99.90
4548;DHT22;2286;51.570;7.090;2023-08-21T15:17:27;39.10;99.90
4548;DHT22;2286;51.570;7.090;2023-08-21T15:19:54;37.90;99.90
4548;DHT22;2286;51.570;7.090;2023-08-21T15:22:21;36.40;99.90
4548;DHT22;2286;51.570;7.090;2023-08-21T15:24:48;36.30;99.90
4548;DHT22;2286;51.570;7.090;2023-08-21T15:27:15;36.30;99.90
4548;DHT22;2286;51.570;7.090;2023-08-21T15:29:42;35.70;99.90
4548;DHT22;2286;51.570;7.090;2023-08-21T15:32:09;35.60;99.90
4548;DHT22;2286;51.570;7.090;2023-08-21T15:34:38;35.90;99.90
4548;DHT22;2286;51.570;7.090;2023-08-21T15:37:04;36.10;99.90
4548;DHT22;2286;51.570;7.090;2023-08-21T15:39:31;37.50;99.90
4548;DHT22;2286;51.570;7.090;2023-08-21T15:41:58;39.20;99.90
4548;DHT22;2286;51.570;7.090;2023-08-21T15:44:25;39.90;99.90
4548;DHT22;2286;51.570;7.090;2023-08-21T15:46:52;41.00;99.90
4548;DHT22;2286;51.570;7.090;2023-08-21T15:49:19;41.20;99.90
4548;DHT22;2286;51.570;7.090;2023-08-21T15:51:47;41.10;99.90
4548;DHT22;2286;51.570;7.090;2023-08-21T15:54:17;40.40;99.90
4548;DHT22;2286;51.570;7.090;2023-08-21T15:56:44;39.20;99.90
4548;DHT22;2286;51.570;7.090;2023-08-21T15:59:11;37.70;99.90
4548;DHT22;2286;51.570;7.090;2023-08-21T16:01:38;36.40;99.90
4548;DHT22;2286;51.570;7.090;2023-08-21T16:04:05;35.80;99.90
4548;DHT22;2286;51.570;7.090;2023-08-21T16:06:32;36.60;99.90
4548;DHT22;2286;51.570;7.090;2023-08-21T16:09:00;36.90;99.90
4548;DHT22;2286;51.570;7.090;2023-08-21T16:11:28;36.70;99.90